createdAt,value
2018-04-14T00:02:09.895Z,41.05
2018-04-14T00:04:38.037Z,42.55
2018-04-14T00:07:06.208Z,43.30
2018-04-14T00:09:34.355Z,42.92
2018-04-14T00:12:02.523Z,41.95
2018-04-14T00:14:30.667Z,42.55
2018-04-14T00:16:58.840Z,43.53
2018-04-14T00:19:26.975Z,42.60
2018-04-14T00:21:55.913Z,43.13
2018-04-14T00:24:24.052Z,41.17
2018-04-14T00:26:52.980Z,41.55
2018-04-14T00:29:21.117Z,44.67
2018-04-14T00:31:50.041Z,45.78
2018-04-14T00:34:18.186Z,46.63
2018-04-14T00:36:46.365Z,45.12
2018-04-14T00:39:14.496Z,45.40
2018-04-14T00:41:42.663Z,46.37
2018-04-14T00:44:10.808Z,46.45
2018-04-14T00:46:38.975Z,43.10
2018-04-14T00:49:07.121Z,42.83
2018-04-14T00:51:35.286Z,45.85
2018-04-14T00:54:04.189Z,42.92
2018-04-14T00:56:32.356Z,43.55
2018-04-14T00:59:01.264Z,44.50
2018-04-14T01:01:29.429Z,43.42
2018-04-14T01:03:57.568Z,49.92
2018-04-14T01:06:25.741Z,45.85
2018-04-14T01:08:53.885Z,43.40
2018-04-14T01:11:22.057Z,44.92
2018-04-14T01:13:50.192Z,45.55
2018-04-14T01:16:18.359Z,44.78
2018-04-14T01:18:46.500Z,43.75
2018-04-14T01:21:14.666Z,45.83
2018-04-14T01:23:42.799Z,46.17
2018-04-14T01:26:10.963Z,47.38
2018-04-14T01:28:39.109Z,45.33
2018-04-14T01:31:07.268Z,46.50
2018-04-14T01:33:35.407Z,47.10
2018-04-14T01:36:03.576Z,45.38
2018-04-14T01:38:31.714Z,49.00
2018-04-14T01:41:00.640Z,49.90
2018-04-14T01:43:28.782Z,51.88
2018-04-14T01:45:57.708Z,50.42
2018-04-14T01:48:25.848Z,49.15
2018-04-14T01:50:54.780Z,50.15
2018-04-14T01:53:22.923Z,46.92
2018-04-14T01:55:51.092Z,51.78
2018-04-14T01:58:19.998Z,55.20
2018-04-14T02:00:48.163Z,57.22
2018-04-14T02:03:16.300Z,53.15
2018-04-14T02:05:44.476Z,51.55
2018-04-14T02:08:12.615Z,52.10
2018-04-14T02:10:40.783Z,51.28
2018-04-14T02:13:08.929Z,48.20
2018-04-14T02:15:37.099Z,47.30
2018-04-14T02:18:05.998Z,47.53
2018-04-14T02:20:34.167Z,47.25
2018-04-14T02:23:03.064Z,50.20
2018-04-14T02:25:31.222Z,49.85
2018-04-14T02:28:00.120Z,53.38
2018-04-14T02:30:28.272Z,49.17
2018-04-14T02:32:56.409Z,49.40
2018-04-14T02:35:24.570Z,46.47
2018-04-14T02:37:52.730Z,47.50
2018-04-14T02:40:20.904Z,50.25
2018-04-14T02:42:49.032Z,53.75
2018-04-14T02:45:17.192Z,52.90
2018-04-14T02:47:45.319Z,56.92
2018-04-14T02:50:13.484Z,58.10
2018-04-14T02:52:42.405Z,57.78
2018-04-14T02:55:10.568Z,59.67
2018-04-14T02:57:38.699Z,67.55
2018-04-14T03:00:06.860Z,65.65
2018-04-14T03:02:35.020Z,65.72
2018-04-14T03:05:03.184Z,68.53
2018-04-14T03:07:31.323Z,64.32
2018-04-14T03:09:59.482Z,61.88
2018-04-14T03:12:27.610Z,61.03
2018-04-14T03:14:55.768Z,57.85
2018-04-14T03:17:23.929Z,58.15
2018-04-14T03:19:52.088Z,54.70
2018-04-14T03:22:20.256Z,61.35
2018-04-14T03:24:49.188Z,54.50
2018-04-14T03:27:17.321Z,52.85
2018-04-14T03:29:46.256Z,56.28
2018-04-14T03:32:14.417Z,49.47
2018-04-14T03:34:42.579Z,50.12
2018-04-14T03:37:10.709Z,50.40
2018-04-14T03:39:38.840Z,54.75
2018-04-14T03:42:06.994Z,53.80
2018-04-14T03:44:35.125Z,53.58
2018-04-14T03:47:03.287Z,63.28
2018-04-14T03:49:31.424Z,70.70
2018-04-14T03:51:59.576Z,67.28
2018-04-14T03:54:27.712Z,67.32
2018-04-14T03:56:55.868Z,65.60
2018-04-14T03:59:24.011Z,71.12
2018-04-14T04:01:52.167Z,66.87
2018-04-14T04:04:21.067Z,64.15
2018-04-14T04:06:49.228Z,70.12
2018-04-14T04:09:18.133Z,69.35
2018-04-14T04:11:46.299Z,71.28
2018-04-14T04:14:15.202Z,66.15
2018-04-14T04:16:43.364Z,68.35
2018-04-14T04:22:28.367Z,62.33
2018-04-14T04:25:15.072Z,61.83
2018-04-14T04:27:43.267Z,59.92
2018-04-14T04:30:11.428Z,60.90
2018-04-14T04:32:39.597Z,63.38
2018-04-14T04:35:07.737Z,62.95
2018-04-14T04:37:36.685Z,58.13
2018-04-14T04:40:04.829Z,57.10
2018-04-14T04:42:32.996Z,54.17
2018-04-14T04:45:01.160Z,67.22
2018-04-14T04:47:29.520Z,58.92
2018-04-14T04:49:57.660Z,55.12
2018-04-14T04:52:26.240Z,59.33
2018-04-14T04:54:54.377Z,60.75
2018-04-14T04:57:22.542Z,59.22
2018-04-14T04:59:51.448Z,60.50
2018-04-14T05:02:20.527Z,58.40
2018-04-14T05:04:49.438Z,58.45
2018-04-14T05:07:17.604Z,54.92
2018-04-14T05:09:45.740Z,59.53
2018-04-14T05:12:13.916Z,69.50
2018-04-14T05:14:42.064Z,59.20
2018-04-14T05:17:10.235Z,63.92
2018-04-14T05:19:38.373Z,56.70
2018-04-14T05:22:06.609Z,59.30
2018-04-14T05:24:34.748Z,59.13
2018-04-14T05:27:02.925Z,62.20
2018-04-14T05:29:31.072Z,76.03
2018-04-14T05:31:59.257Z,85.00
2018-04-14T05:34:27.409Z,75.60
2018-04-14T05:36:56.345Z,78.68
2018-04-14T05:39:24.489Z,79.22
2018-04-14T05:41:52.661Z,80.55
2018-04-14T05:44:20.803Z,77.93
2018-04-14T05:46:49.739Z,81.95
2018-04-14T05:49:17.879Z,73.95
2018-04-14T05:51:46.804Z,72.60
2018-04-14T05:54:14.949Z,78.40
2018-04-14T05:56:43.875Z,73.35
2018-04-14T05:59:12.017Z,71.78
2018-04-14T06:01:40.952Z,70.47
2018-04-14T06:04:09.117Z,74.10
2018-04-14T06:06:37.280Z,71.65
2018-04-14T06:09:06.335Z,74.43
2018-04-14T06:11:34.517Z,73.12
2018-04-14T06:14:03.419Z,75.35
2018-04-14T06:16:31.586Z,68.80
2018-04-14T06:19:00.512Z,74.72
2018-04-14T06:21:28.647Z,68.22
2018-04-14T06:23:57.577Z,67.20
2018-04-14T06:26:25.725Z,67.18
2018-04-14T06:28:53.895Z,68.00
2018-04-14T06:31:22.030Z,68.93
2018-04-14T06:33:50.224Z,70.57
2018-04-14T06:36:19.124Z,77.25
2018-04-14T06:38:47.291Z,72.03
2018-04-14T06:41:16.197Z,73.60
2018-04-14T06:43:45.351Z,71.82
2018-04-14T06:46:13.533Z,68.62
2018-04-14T06:48:42.245Z,73.47
2018-04-14T06:51:10.396Z,70.78
2018-04-14T06:53:38.558Z,74.12
2018-04-14T06:56:06.696Z,77.55
2018-04-14T06:58:34.941Z,79.62
2018-04-14T07:01:03.857Z,69.32
2018-04-14T07:03:32.155Z,70.40
2018-04-14T07:06:00.513Z,70.85
2018-04-14T07:08:28.675Z,68.18
2018-04-14T07:10:57.129Z,70.03
2018-04-14T07:13:25.521Z,69.97
2018-04-14T07:15:54.855Z,72.72
2018-04-14T07:18:23.746Z,74.00
2018-04-14T07:20:53.203Z,69.20
2018-04-14T07:23:22.037Z,67.07
2018-04-14T07:25:50.882Z,56.15
2018-04-14T07:28:19.693Z,60.15
2018-04-14T07:30:48.247Z,61.25
2018-04-14T07:33:17.014Z,56.95
2018-04-14T07:35:46.248Z,58.35
2018-04-14T07:38:15.088Z,55.50
2018-04-14T07:40:44.051Z,59.10
2018-04-14T07:43:12.631Z,55.70
2018-04-14T07:45:41.944Z,58.10
2018-04-14T07:48:11.037Z,56.83
2018-04-14T07:50:39.662Z,53.30
2018-04-14T07:53:08.627Z,56.03
2018-04-14T07:55:37.453Z,56.20
2018-04-14T07:58:06.042Z,56.05
2018-04-14T08:00:34.559Z,50.15
2018-04-14T08:03:03.234Z,52.47
2018-04-14T08:05:31.628Z,49.78
2018-04-14T08:08:00.486Z,45.85
2018-04-14T08:10:29.045Z,45.92
2018-04-14T08:12:57.745Z,44.95
2018-04-14T08:15:26.667Z,41.50
2018-04-14T08:17:55.746Z,38.40
2018-04-14T08:20:24.577Z,32.15
2018-04-14T08:22:53.317Z,32.28
2018-04-14T08:25:21.958Z,33.00
2018-04-14T08:27:50.706Z,32.33
2018-04-14T08:30:19.742Z,29.50
2018-04-14T08:32:48.828Z,32.53
2018-04-14T08:35:18.355Z,31.60
2018-04-14T08:37:46.821Z,30.42
2018-04-14T08:40:15.367Z,30.83
2018-04-14T08:42:44.412Z,32.25
2018-04-14T08:45:13.717Z,29.63
2018-04-14T08:47:42.273Z,27.77
2018-04-14T08:50:10.855Z,27.50
2018-04-14T08:52:40.165Z,27.70
2018-04-14T08:55:09.889Z,26.40
2018-04-14T08:57:38.225Z,28.55
2018-04-14T09:00:06.724Z,25.27
2018-04-14T09:02:35.216Z,24.17
2018-04-14T09:05:04.976Z,24.48
2018-04-14T09:07:34.504Z,25.50
2018-04-14T09:10:03.299Z,26.05
2018-04-14T09:12:32.367Z,25.27
2018-04-14T09:15:02.213Z,25.58
2018-04-14T09:17:30.775Z,22.83
2018-04-14T09:19:59.620Z,23.98
2018-04-14T09:22:28.855Z,22.25
2018-04-14T09:24:57.572Z,22.75
2018-04-14T09:27:25.926Z,23.62
2018-04-14T09:29:55.157Z,23.20
2018-04-14T09:32:24.671Z,22.35
2018-04-14T09:34:53.167Z,21.70
2018-04-14T09:37:21.849Z,20.88
2018-04-14T09:39:50.424Z,18.62
2018-04-14T09:42:19.425Z,20.25
2018-04-14T09:44:48.089Z,21.75
2018-04-14T09:47:16.563Z,21.77
2018-04-14T09:49:45.346Z,21.35
2018-04-14T09:52:13.890Z,18.08
2018-04-14T09:54:42.708Z,20.08
2018-04-14T09:57:13.357Z,17.25
2018-04-14T09:59:42.597Z,16.83
2018-04-14T10:02:11.224Z,16.10
2018-04-14T10:04:39.922Z,16.27
2018-04-14T10:07:08.481Z,15.07
2018-04-14T10:09:37.808Z,16.42
2018-04-14T10:12:05.963Z,15.25
2018-04-14T10:14:35.124Z,13.93
2018-04-14T10:17:03.341Z,13.82
2018-04-14T10:19:32.268Z,11.23
2018-04-14T10:22:00.944Z,12.82
2018-04-14T10:24:29.457Z,14.55
2018-04-14T10:26:59.138Z,12.52
2018-04-14T10:29:27.680Z,13.18
2018-04-14T10:31:56.696Z,12.55
2018-04-14T10:34:25.571Z,12.52
2018-04-14T10:36:54.427Z,11.25
2018-04-14T10:39:23.210Z,12.15
2018-04-14T10:41:52.238Z,10.27
2018-04-14T10:44:20.449Z,10.20
2018-04-14T10:46:48.613Z,10.57
2018-04-14T10:49:17.037Z,9.98
2018-04-14T10:51:45.491Z,10.30
2018-04-14T10:54:13.958Z,10.75
2018-04-14T10:56:42.368Z,10.27
2018-04-14T10:59:11.195Z,9.82
2018-04-14T11:01:39.888Z,10.70
2018-04-14T11:04:08.754Z,10.15
2018-04-14T11:06:37.266Z,9.05
2018-04-14T11:09:06.002Z,9.25
2018-04-14T11:11:34.535Z,10.02
2018-04-14T11:14:03.117Z,9.15
2018-04-14T11:16:31.793Z,11.00
2018-04-14T11:19:00.486Z,9.13
2018-04-14T11:21:30.445Z,8.18
2018-04-14T11:23:59.430Z,9.05
2018-04-14T11:26:28.721Z,9.00
2018-04-14T11:28:58.083Z,9.15
2018-04-14T11:31:27.491Z,11.77
2018-04-14T11:33:56.188Z,10.70
2018-04-14T11:36:25.171Z,6.95
2018-04-14T11:38:53.988Z,7.93
2018-04-14T11:41:22.418Z,8.63
2018-04-14T11:43:52.256Z,6.78
2018-04-14T11:46:21.188Z,8.43
2018-04-14T11:48:49.641Z,8.45
2018-04-14T11:51:17.896Z,8.55
2018-04-14T11:53:46.057Z,8.50
2018-04-14T11:56:14.224Z,8.57
2018-04-14T11:58:42.367Z,8.80
2018-04-14T12:01:10.556Z,8.00
2018-04-14T12:03:38.748Z,8.25
2018-04-14T12:06:06.926Z,7.45
2018-04-14T12:08:35.070Z,6.90
2018-04-14T12:11:03.232Z,6.90
2018-04-14T12:13:31.383Z,6.80
2018-04-14T12:15:59.793Z,6.90
2018-04-14T12:18:27.985Z,7.32
2018-04-14T12:20:56.157Z,6.40
2018-04-14T12:23:24.408Z,6.30
2018-04-14T12:25:52.826Z,5.28
2018-04-14T12:28:21.037Z,5.72
2018-04-14T12:30:49.266Z,6.35
2018-04-14T12:33:17.417Z,4.12
2018-04-14T12:35:45.579Z,3.87
2018-04-14T12:38:13.708Z,4.90
2018-04-14T12:40:42.505Z,4.07
2018-04-14T12:43:11.415Z,4.03
2018-04-14T12:45:39.581Z,4.45
2018-04-14T12:48:08.485Z,3.55
2018-04-14T12:50:36.647Z,4.07
2018-04-14T12:53:05.544Z,3.80
2018-04-14T12:55:33.696Z,3.85
2018-04-14T12:58:01.850Z,3.50
2018-04-14T13:00:30.071Z,4.10
2018-04-14T13:02:58.215Z,3.22
2018-04-14T13:05:26.862Z,3.92
2018-04-14T13:07:55.076Z,4.00
2018-04-14T13:10:23.293Z,3.42
2018-04-14T13:12:51.422Z,3.78
2018-04-14T13:15:19.600Z,3.08
2018-04-14T13:17:47.757Z,2.78
2018-04-14T13:20:15.965Z,2.60
2018-04-14T13:22:44.898Z,3.95
2018-04-14T13:25:13.036Z,3.20
2018-04-14T13:27:41.961Z,3.22
2018-04-14T13:30:10.118Z,3.87
2018-04-14T13:32:38.262Z,3.35
2018-04-14T13:35:06.416Z,3.00
2018-04-14T13:37:34.671Z,2.87
2018-04-14T13:40:02.765Z,3.55
2018-04-14T13:42:30.936Z,3.25
2018-04-14T13:44:59.103Z,3.05
2018-04-14T13:47:27.243Z,3.67
2018-04-14T13:49:55.404Z,3.10
2018-04-14T13:52:23.604Z,3.25
2018-04-14T13:54:51.766Z,3.60
2018-04-14T13:57:19.974Z,2.42
2018-04-14T13:59:48.140Z,2.55
2018-04-14T14:02:16.340Z,2.65
2018-04-14T14:04:44.482Z,2.65
2018-04-14T14:07:12.663Z,3.12
2018-04-14T14:09:40.810Z,2.53
2018-04-14T14:12:09.006Z,2.60
2018-04-14T14:14:37.163Z,2.58
2018-04-14T14:17:05.324Z,1.98
2018-04-14T14:19:33.614Z,2.20
2018-04-14T14:22:01.801Z,2.35
2018-04-14T14:24:29.937Z,2.30
2018-04-14T14:26:58.102Z,2.78
2018-04-14T14:29:26.243Z,2.50
2018-04-14T14:31:54.439Z,2.67
2018-04-14T14:34:22.580Z,3.30
2018-04-14T14:36:50.751Z,3.20
2018-04-14T14:39:18.879Z,3.67
2018-04-14T14:41:47.042Z,4.15
2018-04-14T14:44:15.187Z,4.60
2018-04-14T14:46:43.344Z,4.95
2018-04-14T14:49:11.475Z,5.18
2018-04-14T14:51:39.634Z,4.87
2018-04-14T14:54:07.764Z,5.72
2018-04-14T14:56:35.922Z,6.28
2018-04-14T14:59:04.114Z,6.40
2018-04-14T15:01:32.255Z,6.00
2018-04-14T15:04:00.394Z,6.95
2018-04-14T15:06:28.545Z,8.10
2018-04-14T15:08:56.676Z,6.53
2018-04-14T15:11:24.834Z,7.65
2018-04-14T15:13:53.001Z,7.80
2018-04-14T15:16:21.166Z,8.32
2018-04-14T15:18:50.072Z,6.80
2018-04-14T15:21:18.239Z,7.47
2018-04-14T15:23:46.461Z,7.30
2018-04-14T15:26:14.659Z,8.20
2018-04-14T15:28:42.819Z,8.15
2018-04-14T15:31:10.989Z,8.88
2018-04-14T15:33:39.241Z,8.75
2018-04-14T15:36:07.481Z,7.07
2018-04-14T15:38:35.707Z,9.65
2018-04-14T15:41:03.863Z,8.57
2018-04-14T15:43:31.999Z,9.90
2018-04-14T15:46:00.272Z,9.20
2018-04-14T15:48:28.456Z,8.93
2018-04-14T15:50:56.599Z,10.38
2018-04-14T15:53:24.812Z,11.40
2018-04-14T15:55:52.994Z,11.60
2018-04-14T15:58:21.161Z,10.18
2018-04-14T16:00:49.301Z,10.60
2018-04-14T16:03:17.473Z,11.18
2018-04-14T16:05:45.653Z,12.45
2018-04-14T16:08:14.564Z,11.27
2018-04-14T16:10:42.725Z,12.45
2018-04-14T16:13:11.693Z,12.23
2018-04-14T16:15:39.841Z,12.07
2018-04-14T16:18:08.008Z,11.90
2018-04-14T16:20:36.144Z,11.68
2018-04-14T16:23:04.312Z,10.85
2018-04-14T16:25:33.226Z,10.70
2018-04-14T16:28:01.580Z,13.30
2018-04-14T16:30:29.724Z,10.75
2018-04-14T16:32:57.879Z,10.30
2018-04-14T16:35:26.016Z,11.23
2018-04-14T16:37:54.628Z,10.38
2018-04-14T16:40:22.766Z,12.57
2018-04-14T16:42:50.934Z,9.63
2018-04-14T16:45:19.064Z,9.23
2018-04-14T16:47:47.231Z,9.75
2018-04-14T16:50:15.363Z,9.93
2018-04-14T16:52:43.519Z,10.80
2018-04-14T16:55:11.660Z,10.48
2018-04-14T16:57:39.828Z,9.25
2018-04-14T17:00:07.999Z,9.60
2018-04-14T17:02:36.155Z,9.18
2018-04-14T17:05:04.302Z,10.95
2018-04-14T17:07:33.251Z,10.95
2018-04-14T17:10:01.404Z,11.18
2018-04-14T17:12:29.582Z,11.50
2018-04-14T17:14:57.725Z,10.80
2018-04-14T17:17:25.923Z,11.45
2018-04-14T17:19:54.273Z,10.63
2018-04-14T17:22:23.207Z,10.80
2018-04-14T17:24:51.360Z,10.32
2018-04-14T17:27:19.509Z,11.25
2018-04-14T17:29:47.669Z,13.50
2018-04-14T17:32:15.829Z,10.63
2018-04-14T17:34:43.960Z,12.57
2018-04-14T17:37:12.138Z,13.93
2018-04-14T17:39:40.306Z,11.85
2018-04-14T17:42:08.501Z,12.73
2018-04-14T17:44:36.725Z,13.30
2018-04-14T17:47:04.876Z,11.80
2018-04-14T17:49:33.041Z,13.27
2018-04-14T17:52:01.257Z,13.05
2018-04-14T17:54:29.434Z,13.30
2018-04-14T17:56:58.484Z,12.70
2018-04-14T17:59:26.696Z,13.82
2018-04-14T18:01:54.882Z,14.45
2018-04-14T18:04:23.057Z,15.10
2018-04-14T18:06:51.244Z,13.75
2018-04-14T18:09:20.002Z,14.77
2018-04-14T18:11:48.957Z,15.50
2018-04-14T18:14:17.125Z,15.10
2018-04-14T18:16:45.468Z,13.98
2018-04-14T18:19:13.736Z,16.45
2018-04-14T18:21:41.888Z,15.48
2018-04-14T18:24:10.892Z,17.00
2018-04-14T18:26:39.801Z,19.67
2018-04-14T18:29:08.210Z,17.02
2018-04-14T18:31:37.276Z,20.70
2018-04-14T18:34:05.428Z,18.17
2018-04-14T18:36:33.576Z,18.15
2018-04-14T18:39:01.742Z,18.02
2018-04-14T18:41:29.891Z,18.37
2018-04-14T18:43:58.047Z,16.98
2018-04-14T18:46:26.210Z,17.60
2018-04-14T18:48:54.373Z,18.65
2018-04-14T18:51:23.654Z,18.70
2018-04-14T18:53:51.808Z,18.77
2018-04-14T18:56:20.192Z,19.55
2018-04-14T18:58:48.500Z,20.17
2018-04-14T19:01:17.451Z,20.25
2018-04-14T19:03:45.617Z,18.90
2018-04-14T19:06:14.262Z,19.37
2018-04-14T19:08:43.221Z,21.25
2018-04-14T19:11:11.378Z,20.30
2018-04-14T19:13:39.642Z,19.95
2018-04-14T19:16:07.787Z,19.98
2018-04-14T19:18:35.999Z,19.67
2018-04-14T19:21:09.912Z,19.73
2018-04-14T19:23:38.564Z,21.00
2018-04-14T19:26:06.750Z,20.52
2018-04-14T19:28:34.916Z,21.70
2018-04-14T19:31:03.061Z,19.37
2018-04-14T19:33:31.236Z,18.83
2018-04-14T19:35:59.369Z,22.02
2018-04-14T19:38:27.509Z,21.50
2018-04-14T19:40:55.678Z,22.13
2018-04-14T19:43:23.889Z,22.05
2018-04-14T19:45:52.027Z,22.23
2018-04-14T19:48:20.376Z,20.88
2018-04-14T19:50:49.295Z,20.05
2018-04-14T19:53:17.712Z,20.00
2018-04-14T19:55:45.875Z,22.33
2018-04-14T19:58:14.137Z,22.35
2018-04-14T20:00:42.307Z,21.10
2018-04-14T20:03:11.004Z,22.85
2018-04-14T20:05:39.168Z,21.10
2018-04-14T20:08:07.312Z,23.12
2018-04-14T20:10:35.475Z,24.83
2018-04-14T20:13:04.384Z,22.73
2018-04-14T20:15:32.600Z,24.65
2018-04-14T20:18:00.847Z,24.15
2018-04-14T20:20:29.045Z,23.42
2018-04-14T20:22:57.182Z,24.90
2018-04-14T20:25:25.365Z,25.08
2018-04-14T20:27:53.497Z,23.38
2018-04-14T20:30:21.654Z,23.23
2018-04-14T20:32:49.789Z,24.37
2018-04-14T20:35:17.982Z,25.52
2018-04-14T20:37:46.116Z,27.80
2018-04-14T20:40:14.292Z,25.88
2018-04-14T20:42:42.461Z,28.73
2018-04-14T20:45:10.631Z,28.65
2018-04-14T20:47:39.538Z,27.45
2018-04-14T20:50:07.696Z,26.33
2018-04-14T20:52:35.852Z,25.67
2018-04-14T20:55:04.074Z,30.73
2018-04-14T20:57:32.293Z,26.77
2018-04-14T21:00:00.515Z,28.58
2018-04-14T21:02:28.706Z,31.67
2018-04-14T21:04:56.893Z,29.50
2018-04-14T21:07:25.024Z,31.52
2018-04-14T21:09:53.176Z,26.02
2018-04-14T21:12:22.103Z,27.85
2018-04-14T21:14:50.276Z,28.80
2018-04-14T21:17:18.496Z,29.00
2018-04-14T21:19:46.665Z,32.55
2018-04-14T21:22:14.817Z,30.90
2018-04-14T21:24:42.980Z,31.33
2018-04-14T21:27:11.132Z,30.65
2018-04-14T21:29:39.300Z,33.83
2018-04-14T21:32:08.208Z,30.17
2018-04-14T21:34:36.363Z,33.13
2018-04-14T21:37:05.264Z,33.47
2018-04-14T21:39:33.400Z,31.58
2018-04-14T21:42:01.564Z,31.67
2018-04-14T21:44:29.696Z,31.52
2018-04-14T21:46:57.853Z,30.23
2018-04-14T21:49:25.988Z,33.85
2018-04-14T21:51:54.148Z,31.87
2018-04-14T21:54:22.285Z,31.17
2018-04-14T21:56:50.448Z,30.55
2018-04-14T21:59:18.620Z,31.98
2018-04-14T22:01:46.775Z,33.80
2018-04-14T22:04:14.912Z,34.28
2018-04-14T22:06:43.076Z,35.40
2018-04-14T22:09:11.237Z,34.03
2018-04-14T22:11:39.373Z,35.92
2018-04-14T22:14:08.300Z,34.65
2018-04-14T22:16:36.462Z,38.20
2018-04-14T22:19:04.601Z,36.95
2018-04-14T22:21:32.770Z,36.55
2018-04-14T22:24:00.904Z,37.83
2018-04-14T22:26:29.063Z,39.72
2018-04-14T22:28:57.198Z,40.08
2018-04-14T22:31:25.355Z,41.37
2018-04-14T22:33:53.492Z,38.50
2018-04-14T22:36:21.651Z,41.58
2018-04-14T22:38:49.783Z,39.80
2018-04-14T22:41:17.946Z,43.05
2018-04-14T22:43:46.083Z,39.20
2018-04-14T22:46:14.245Z,38.35
2018-04-14T22:48:42.376Z,37.53
2018-04-14T22:51:10.536Z,42.53
2018-04-14T22:53:38.699Z,43.67
2018-04-14T22:56:06.837Z,42.90
2018-04-14T22:58:34.994Z,41.78
2018-04-14T23:01:03.124Z,41.60
2018-04-14T23:03:31.293Z,40.65
2018-04-14T23:05:59.440Z,43.87
2018-04-14T23:08:27.599Z,38.90
2018-04-14T23:10:55.737Z,40.28
2018-04-14T23:13:23.896Z,43.90
2018-04-14T23:15:52.029Z,41.05
2018-04-14T23:18:20.192Z,42.28
2018-04-14T23:20:48.325Z,42.47
2018-04-14T23:23:16.483Z,41.72
2018-04-14T23:25:44.619Z,42.03
2018-04-14T23:28:12.790Z,39.10
2018-04-14T23:30:40.925Z,39.67
2018-04-14T23:33:09.084Z,39.30
2018-04-14T23:35:37.221Z,39.03
2018-04-14T23:38:05.387Z,39.58
2018-04-14T23:40:33.521Z,39.38
2018-04-14T23:43:01.683Z,39.53
2018-04-14T23:45:29.823Z,38.33
2018-04-14T23:47:57.960Z,37.00
2018-04-14T23:50:26.121Z,41.00
2018-04-14T23:52:55.014Z,38.05
2018-04-14T23:55:23.177Z,42.65
2018-04-14T23:57:51.308Z,35.20
